createdAt,value
2023-03-29T00:00:45.571Z,99.8
2023-03-29T00:02:43.287Z,99.8
2023-03-29T00:04:48.598Z,99.8
2023-03-29T00:06:46.186Z,99.8
2023-03-29T00:08:43.812Z,99.8
2023-03-29T00:10:41.400Z,99.8
2023-03-29T00:12:38.897Z,99.8
2023-03-29T00:14:36.447Z,99.8
2023-03-29T00:16:34.071Z,99.8
2023-03-29T00:18:39.490Z,99.9
2023-03-29T00:24:32.201Z,99.9
2023-03-29T00:26:29.770Z,99.9
2023-03-29T00:32:30.347Z,99.9
2023-03-29T00:34:27.904Z,99.9
2023-03-29T00:38:23.055Z,99.9
2023-03-29T00:44:15.730Z,99.9
2023-03-29T00:46:21.247Z,99.9
2023-03-29T00:48:18.752Z,99.9
2023-03-29T00:50:16.331Z,99.9
2023-03-29T00:56:38.391Z,99.8
2023-03-29T00:58:43.834Z,99.8
2023-03-29T01:02:39.001Z,99.9
2023-03-29T01:04:36.542Z,99.9
2023-03-29T01:10:29.238Z,99.9
2023-03-29T01:12:34.798Z,99.9
2023-03-29T01:14:32.350Z,99.9
2023-03-29T01:16:29.959Z,99.9
2023-03-29T01:18:27.486Z,99.9
2023-03-29T01:20:25.103Z,99.9
2023-03-29T01:22:22.660Z,99.9
2023-03-29T01:26:25.692Z,99.9
2023-03-29T01:30:20.814Z,99.9
2023-03-29T01:32:18.374Z,99.9
2023-03-29T01:34:15.960Z,99.8
2023-03-29T01:36:13.594Z,99.8
2023-03-29T01:38:11.083Z,99.8
2023-03-29T01:42:14.125Z,99.6
2023-03-29T01:44:11.683Z,99.5
2023-03-29T01:45:14.422Z,99.4
2023-03-29T01:47:12.025Z,99.2
2023-03-29T01:49:09.571Z,99.1
2023-03-29T02:04:58.024Z,98
2023-03-29T02:07:03.513Z,97.9
2023-03-29T02:09:01.099Z,97.8
2023-03-29T02:10:58.642Z,97.8
2023-03-29T02:12:56.222Z,97.7
2023-03-29T02:14:53.784Z,97.6
2023-03-29T02:18:48.935Z,97.5
2023-03-29T02:20:54.384Z,97.3
2023-03-29T02:26:47.104Z,97.1
2023-03-29T02:32:39.908Z,96.9
2023-03-29T02:34:45.266Z,96.8
2023-03-29T02:36:42.843Z,96.8
2023-03-29T02:38:40.407Z,96.9
2023-03-29T02:39:43.157Z,96.9
2023-03-29T02:43:38.282Z,97
2023-03-29T02:47:41.385Z,96.9
2023-03-29T02:55:31.650Z,97
2023-03-29T02:57:29.202Z,97.1
2023-03-29T02:59:26.806Z,97.4
2023-03-29T03:01:32.313Z,98.4
2023-03-29T03:03:29.954Z,98.9
2023-03-29T03:05:27.404Z,99.3
2023-03-29T03:07:24.971Z,99.5
2023-03-29T03:09:22.564Z,99.8
2023-03-29T03:11:20.121Z,99.9
2023-03-29T03:13:17.682Z,99.9
2023-03-29T03:15:23.176Z,99.9
2023-03-29T03:17:20.740Z,99.9
2023-03-29T03:19:18.318Z,99.9
2023-03-29T03:23:13.447Z,99.9
2023-03-29T03:25:11.007Z,99.9
2023-03-29T03:27:08.568Z,99.9
2023-03-29T03:33:09.213Z,99.9
2023-03-29T03:34:11.944Z,99.9
2023-03-29T03:36:09.532Z,99.9
2023-03-29T03:38:07.069Z,99.9
2023-03-29T03:42:10.129Z,99.9
2023-03-29T03:48:02.884Z,99.9
2023-03-29T03:50:00.409Z,99.9
2023-03-29T03:51:57.975Z,99.9
2023-03-29T03:53:55.528Z,99.9
2023-03-29T03:56:00.969Z,99.9
2023-03-29T03:57:58.558Z,99.9
2023-03-29T03:59:56.133Z,99.9
2023-03-29T04:01:53.707Z,99.9
2023-03-29T04:03:51.424Z,99.9
2023-03-29T04:05:48.917Z,99.9
2023-03-29T04:09:51.891Z,99.9
2023-03-29T04:19:39.745Z,99.9
2023-03-29T04:21:38.868Z,99.9
2023-03-29T04:25:41.886Z,99.9
2023-03-29T04:27:39.433Z,99.9
2023-03-29T04:32:03.931Z,99.9
2023-03-29T04:34:01.523Z,99.9
2023-03-29T04:36:07.076Z,99.9
2023-03-29T04:40:02.156Z,99.9
2023-03-29T04:41:59.716Z,99.9
2023-03-29T04:43:57.300Z,99.9
2023-03-29T04:47:52.497Z,99.9
2023-03-29T04:49:57.895Z,99.9
2023-03-29T04:55:50.689Z,99.9
2023-03-29T04:59:45.840Z,99.9
2023-03-29T05:01:43.496Z,99.9
2023-03-29T05:03:48.897Z,99.9
2023-03-29T05:05:46.491Z,99.9
2023-03-29T05:09:41.633Z,99.9
2023-03-29T05:13:36.752Z,99.9
2023-03-29T05:15:34.364Z,99.9
2023-03-29T05:17:39.868Z,99.9
2023-03-29T05:22:37.751Z,99.9
2023-03-29T05:26:32.887Z,99.9
2023-03-29T05:28:30.480Z,99.9
2023-03-29T05:30:35.974Z,99.9
2023-03-29T05:34:31.076Z,99.9
2023-03-29T05:36:28.630Z,99.9
2023-03-29T05:38:26.211Z,99.9
2023-03-29T05:52:17.160Z,99.9
2023-03-29T05:56:12.313Z,99.9
2023-03-29T06:17:06.635Z,99.9
2023-03-29T06:19:04.199Z,99.9
2023-03-29T06:22:59.338Z,99.9
2023-03-29T06:25:04.847Z,99.9
2023-03-29T06:27:02.406Z,99.9
2023-03-29T06:32:55.203Z,99.9
2023-03-29T06:36:50.362Z,99.9
2023-03-29T06:38:55.824Z,99.9
2023-03-29T06:40:53.432Z,99.9
2023-03-29T06:42:51.024Z,99.9
2023-03-29T06:44:48.614Z,99.9
2023-03-29T06:46:46.243Z,99.9
2023-03-29T06:48:43.788Z,99.9
2023-03-29T06:52:46.881Z,99.9
2023-03-29T06:54:44.472Z,99.9
2023-03-29T06:56:42.072Z,99.9
2023-03-29T06:58:39.636Z,99.9
2023-03-29T07:00:37.205Z,99.9
2023-03-29T07:02:34.821Z,99.9
2023-03-29T07:04:32.440Z,99.9
2023-03-29T07:11:35.772Z,99.9
2023-03-29T07:13:33.353Z,99.9
2023-03-29T07:15:30.967Z,99.9
2023-03-29T07:17:28.538Z,99.9
2023-03-29T07:19:34.026Z,99.9
2023-03-29T07:21:31.610Z,99.9
2023-03-29T07:23:29.186Z,99.9
2023-03-29T07:25:26.797Z,99.9
2023-03-29T07:29:21.987Z,99.9
2023-03-29T07:31:19.570Z,99.9
2023-03-29T07:33:25.112Z,99.9
2023-03-29T07:35:22.686Z,99.9
2023-03-29T07:39:17.824Z,99.9
2023-03-29T07:43:13.014Z,99.9
2023-03-29T07:45:10.618Z,99.9
2023-03-29T07:47:16.104Z,99.9
2023-03-29T07:49:13.716Z,99.9
2023-03-29T07:51:11.293Z,99.9
2023-03-29T07:57:04.193Z,99.9
2023-03-29T08:07:23.120Z,99.9
2023-03-29T08:09:20.706Z,99.9
2023-03-29T08:17:18.957Z,99.9
2023-03-29T08:19:16.557Z,99.9
2023-03-29T08:27:14.875Z,99.9
2023-03-29T08:29:12.420Z,99.9
2023-03-29T08:37:02.825Z,99.9
2023-03-29T08:39:00.412Z,99.9
2023-03-29T08:41:05.912Z,99.9
2023-03-29T08:43:03.511Z,99.9
2023-03-29T08:46:58.740Z,99.9
2023-03-29T08:50:53.899Z,99.7
2023-03-29T08:52:51.500Z,99.6
2023-03-29T08:54:56.994Z,99.5
2023-03-29T08:56:54.659Z,99.4
2023-03-29T08:58:52.221Z,99.4
2023-03-29T08:59:54.977Z,99.4
2023-03-29T09:01:52.641Z,99.4
2023-03-29T09:05:47.758Z,99.4
2023-03-29T09:07:53.260Z,99.4
2023-03-29T09:09:50.833Z,99.4
2023-03-29T09:11:48.458Z,99.4
2023-03-29T09:19:38.838Z,99.5
2023-03-29T09:21:44.368Z,99.6
2023-03-29T09:23:41.924Z,99.6
2023-03-29T09:27:37.098Z,99.7
2023-03-29T09:29:34.728Z,99.7
2023-03-29T09:31:32.356Z,99.7
2023-03-29T09:33:29.905Z,99.7
2023-03-29T09:35:35.452Z,99.7
2023-03-29T09:39:30.625Z,99.8
2023-03-29T09:41:28.196Z,99.8
2023-03-29T09:43:25.818Z,99.9
2023-03-29T09:47:20.997Z,99.8
2023-03-29T09:51:24.177Z,99.6
2023-03-29T09:53:21.708Z,99.5
2023-03-29T10:00:17.271Z,99.7
2023-03-29T10:02:24.328Z,99.8
2023-03-29T10:08:19.025Z,99.4
2023-03-29T10:12:12.296Z,98.9
2023-03-29T10:14:09.905Z,98.7
2023-03-29T10:16:15.448Z,98.2
2023-03-29T10:18:13.034Z,98
2023-03-29T10:20:10.605Z,98
2023-03-29T10:22:08.229Z,98
2023-03-29T10:28:00.995Z,98.4
2023-03-29T10:32:04.209Z,98.9
2023-03-29T10:37:56.867Z,98.9
2023-03-29T10:41:52.017Z,98.8
2023-03-29T10:43:57.597Z,98.7
2023-03-29T10:48:55.557Z,98.4
2023-03-29T10:50:53.186Z,98.3
2023-03-29T10:54:48.293Z,98.3
2023-03-29T10:56:53.843Z,98.7
2023-03-29T10:58:51.387Z,98.9
2023-03-29T11:00:49.019Z,99.1
2023-03-29T11:02:46.652Z,99.2
2023-03-29T11:04:44.181Z,99.3
2023-03-29T11:08:39.376Z,99.3
2023-03-29T11:10:44.893Z,99.5
2023-03-29T11:14:40.113Z,99.6
2023-03-29T11:18:35.287Z,99.7
2023-03-29T11:22:30.472Z,99.6
2023-03-29T11:24:35.964Z,99.5
2023-03-29T11:26:33.587Z,99.5
2023-03-29T11:28:31.176Z,99.4
2023-03-29T11:30:28.758Z,99.4
2023-03-29T11:40:24.615Z,99
2023-03-29T11:42:22.198Z,99
2023-03-29T11:46:43.154Z,99.2
2023-03-29T11:54:41.443Z,99.4
2023-03-29T12:00:34.192Z,98.9
2023-03-29T12:02:31.856Z,98.8
2023-03-29T12:04:37.294Z,98.7
2023-03-29T12:06:34.876Z,98.8
2023-03-29T12:08:32.468Z,98.8
2023-03-29T12:10:30.057Z,98.8
2023-03-29T12:12:27.652Z,98.9
2023-03-29T12:14:27.772Z,98.9
2023-03-29T12:18:28.353Z,99.4
2023-03-29T12:22:23.551Z,99.7
2023-03-29T12:28:16.333Z,99.9
2023-03-29T12:30:13.936Z,99.9
2023-03-29T12:32:19.461Z,99.9
2023-03-29T12:34:17.068Z,99.9
2023-03-29T12:36:14.750Z,99.9
2023-03-29T12:43:10.189Z,99.9
2023-03-29T12:47:13.298Z,99.9
2023-03-29T12:53:06.110Z,99.9
2023-03-29T13:01:05.817Z,99.9
2023-03-29T13:08:54.766Z,99.9
2023-03-29T13:10:52.345Z,99.9
2023-03-29T13:12:57.848Z,99.9
2023-03-29T13:14:55.420Z,99.9
2023-03-29T13:16:53.036Z,99.9
2023-03-29T13:18:50.643Z,99.9
2023-03-29T13:20:48.258Z,99.9
2023-03-29T13:22:46.069Z,99.9
2023-03-29T13:24:43.495Z,99.9
2023-03-29T13:26:48.995Z,99.9
2023-03-29T13:30:44.182Z,99.9
2023-03-29T13:33:44.558Z,99.9
2023-03-29T13:35:42.199Z,99.9
2023-03-29T13:39:45.256Z,99.9
2023-03-29T13:41:42.840Z,99.9
2023-03-29T13:43:40.436Z,99.9
2023-03-29T13:45:38.027Z,99.9
2023-03-29T13:47:35.729Z,99.9
2023-03-29T13:49:33.254Z,99.9
2023-03-29T13:57:31.574Z,99.9
2023-03-29T14:01:26.855Z,99.9
2023-03-29T14:03:24.478Z,99.9
2023-03-29T14:07:27.558Z,99.9
2023-03-29T14:11:22.754Z,99.9
2023-03-29T14:13:20.357Z,99.9
2023-03-29T14:15:17.942Z,99.9
2023-03-29T14:19:13.103Z,99.9
2023-03-29T14:23:16.286Z,99.9
2023-03-29T14:25:13.848Z,99.9
2023-03-29T14:26:16.611Z,99.9
2023-03-29T14:28:14.192Z,99.9
2023-03-29T14:30:11.817Z,99.9
2023-03-29T14:34:14.910Z,99.9
2023-03-29T14:42:05.285Z,99.9
2023-03-29T14:46:00.794Z,99.9
2023-03-29T14:48:06.256Z,99.9
2023-03-29T14:50:03.726Z,99.9
2023-03-29T14:52:01.201Z,99.9
2023-03-29T14:53:58.791Z,99.9
2023-03-29T15:09:47.515Z,99.9
2023-03-29T15:11:45.106Z,99.9
2023-03-29T15:13:42.710Z,99.9
2023-03-29T15:15:48.302Z,99.9
2023-03-29T15:19:43.444Z,99.9
2023-03-29T15:22:06.596Z,99.9
2023-03-29T15:24:04.204Z,99.9
2023-03-29T15:32:02.588Z,99.9
2023-03-29T15:34:00.136Z,99.9
2023-03-29T15:37:55.357Z,99.9
2023-03-29T15:39:52.905Z,99.9
2023-03-29T15:43:57.571Z,99.9
2023-03-29T15:51:47.926Z,99.9
2023-03-29T15:53:45.523Z,99.9
2023-03-29T15:55:51.042Z,99.9
2023-03-29T15:57:48.764Z,99.9
2023-03-29T15:59:46.220Z,99.9
2023-03-29T16:01:43.859Z,99.9
2023-03-29T16:03:41.429Z,99.9
2023-03-29T16:05:39.045Z,99.9
2023-03-29T16:07:36.635Z,99.9
2023-03-29T16:09:42.131Z,99.9
2023-03-29T16:11:39.729Z,99.9
2023-03-29T16:13:37.370Z,99.9
2023-03-29T16:14:41.933Z,99.9
2023-03-29T16:18:35.253Z,99.9
2023-03-29T16:20:32.868Z,99.9
2023-03-29T16:22:38.353Z,99.9
2023-03-29T16:24:36.009Z,99.9
2023-03-29T16:26:33.537Z,99.9
2023-03-29T16:28:31.173Z,99.9
2023-03-29T16:30:28.759Z,99.9
2023-03-29T16:32:26.471Z,99.9
2023-03-29T16:34:23.944Z,99.9
2023-03-29T16:36:29.460Z,99.9
2023-03-29T16:38:27.048Z,99.9
2023-03-29T16:40:24.641Z,99.9
2023-03-29T16:42:22.261Z,99.9
2023-03-29T16:44:23.003Z,99.9
2023-03-29T16:46:17.464Z,99.9
2023-03-29T16:48:15.072Z,99.9
2023-03-29T16:50:20.590Z,99.9
2023-03-29T16:52:18.175Z,99.9
2023-03-29T16:54:15.752Z,99.9
2023-03-29T16:56:13.332Z,99.9
2023-03-29T16:58:10.947Z,99.9
2023-03-29T17:09:09.544Z,99.9
2023-03-29T17:13:04.731Z,99.9
2023-03-29T17:15:02.365Z,99.9
2023-03-29T17:17:07.847Z,99.9
2023-03-29T17:19:05.457Z,99.9
2023-03-29T17:21:03.068Z,99.9
2023-03-29T17:28:53.468Z,99.9
2023-03-29T17:30:59.011Z,99.9
2023-03-29T17:34:54.244Z,99.9
2023-03-29T17:44:50.142Z,99.9
2023-03-29T17:56:35.713Z,99.9
2023-03-29T17:58:41.264Z,99.9
2023-03-29T18:00:38.932Z,99.9
2023-03-29T18:02:36.653Z,99.9
2023-03-29T18:03:39.235Z,99.9
2023-03-29T18:05:36.814Z,99.9
2023-03-29T18:07:34.405Z,99.9
2023-03-29T18:09:32.000Z,99.9
2023-03-29T18:13:35.137Z,99.9
2023-03-29T18:15:32.769Z,99.9
2023-03-29T18:23:23.155Z,99.9
2023-03-29T18:25:28.670Z,99.9
2023-03-29T18:31:21.492Z,99.9
2023-03-29T18:33:19.058Z,99.9
2023-03-29T18:35:16.644Z,99.9
2023-03-29T18:37:14.268Z,99.9
2023-03-29T18:41:17.368Z,99.9
2023-03-29T18:45:12.556Z,99.9
2023-03-29T18:47:10.160Z,99.9
2023-03-29T18:49:07.791Z,99.9
2023-03-29T18:51:05.667Z,99.9
2023-03-29T18:57:06.078Z,99.9
2023-03-29T18:59:32.920Z,99.9
2023-03-29T19:03:28.335Z,99.9
2023-03-29T19:05:33.670Z,99.9
2023-03-29T19:07:31.308Z,99.9
2023-03-29T19:09:28.886Z,99.9
2023-03-29T19:11:28.939Z,99.9
2023-03-29T19:13:24.074Z,99.9
2023-03-29T19:15:21.703Z,99.9
2023-03-29T19:17:19.274Z,99.9
2023-03-29T19:19:24.798Z,99.9
2023-03-29T19:21:22.402Z,99.9
2023-03-29T19:23:20.002Z,99.9
2023-03-29T19:27:15.226Z,99.9
2023-03-29T19:31:10.398Z,99.9
2023-03-29T19:33:15.963Z,99.9
2023-03-29T19:35:13.493Z,99.9
2023-03-29T19:37:11.120Z,99.9
2023-03-29T19:39:08.721Z,99.9
2023-03-29T19:41:06.311Z,99.9
2023-03-29T19:43:03.920Z,99.9
2023-03-29T19:47:07.133Z,99.9
2023-03-29T19:49:05.634Z,99.9
2023-03-29T19:51:02.202Z,99.9
2023-03-29T19:52:04.974Z,99.9
2023-03-29T19:54:02.562Z,99.9
2023-03-29T19:56:00.236Z,99.9
2023-03-29T19:57:57.751Z,99.9
2023-03-29T20:00:03.312Z,99.9
2023-03-29T20:02:00.905Z,99.9
2023-03-29T20:03:58.494Z,99.9
2023-03-29T20:05:56.068Z,99.9
2023-03-29T20:19:47.209Z,99.9
2023-03-29T20:23:42.414Z,99.9
2023-03-29T20:27:45.523Z,99.9
2023-03-29T20:29:43.126Z,99.9
2023-03-29T20:35:36.008Z,99.9
2023-03-29T20:39:31.141Z,99.9
2023-03-29T20:41:36.675Z,99.9
2023-03-29T20:46:34.679Z,99.9
2023-03-29T20:48:32.281Z,99.9
2023-03-29T20:50:29.882Z,99.9
2023-03-29T20:54:33.008Z,99.9
2023-03-29T20:56:30.571Z,99.9
2023-03-29T21:00:25.772Z,99.9
2023-03-29T21:02:23.474Z,99.9
2023-03-29T21:04:21.012Z,99.9
2023-03-29T21:08:24.140Z,99.9
2023-03-29T21:18:12.265Z,99.9
2023-03-29T21:20:09.795Z,99.9
2023-03-29T21:22:15.307Z,99.9
2023-03-29T21:28:09.630Z,99.9
2023-03-29T21:30:07.222Z,99.9
2023-03-29T21:32:04.851Z,99.9
2023-03-29T21:34:02.439Z,99.9
2023-03-29T21:36:08.012Z,99.9
2023-03-29T21:38:05.542Z,99.9
2023-03-29T21:40:03.160Z,99.9
2023-03-29T21:41:06.170Z,99.9
2023-03-29T21:43:03.507Z,99.9
2023-03-29T21:45:01.109Z,99.9
2023-03-29T21:46:58.756Z,99.9
2023-03-29T21:51:01.961Z,99.9
2023-03-29T21:52:59.390Z,99.9
2023-03-29T21:58:52.217Z,99.9
2023-03-29T22:00:49.830Z,99.9
2023-03-29T22:02:55.310Z,99.9
2023-03-29T22:04:52.917Z,99.9
2023-03-29T22:06:50.509Z,99.9
2023-03-29T22:12:43.330Z,99.9
2023-03-29T22:14:40.925Z,99.9
2023-03-29T22:16:46.467Z,99.9
2023-03-29T22:18:44.179Z,99.9
2023-03-29T22:20:41.649Z,99.9
2023-03-29T22:22:39.252Z,99.9
2023-03-29T22:24:36.838Z,99.9
2023-03-29T22:26:34.443Z,99.9
2023-03-29T22:30:37.542Z,99.9
2023-03-29T22:32:35.191Z,99.9
2023-03-29T22:36:53.713Z,99.9
2023-03-29T22:38:51.330Z,99.9
2023-03-29T22:40:48.929Z,99.9
2023-03-29T22:42:54.497Z,99.9
2023-03-29T22:44:52.045Z,99.9
2023-03-29T22:46:49.639Z,99.9
2023-03-29T22:50:44.849Z,99.9
2023-03-29T22:52:42.428Z,99.9
2023-03-29T23:00:41.127Z,99.9
2023-03-29T23:02:38.676Z,99.9
2023-03-29T23:04:36.367Z,99.9
2023-03-29T23:14:32.201Z,99.9
2023-03-29T23:18:27.385Z,99.9
2023-03-29T23:20:24.988Z,99.9
2023-03-29T23:22:22.614Z,99.9
2023-03-29T23:26:25.673Z,99.9
2023-03-29T23:29:26.035Z,99.9
2023-03-29T23:31:23.681Z,99.9
2023-03-29T23:33:21.206Z,99.9
2023-03-29T23:35:18.826Z,99.9
2023-03-29T23:39:21.890Z,99.9
2023-03-29T23:43:17.077Z,99.9
2023-03-29T23:45:14.687Z,99.9
2023-03-29T23:47:12.277Z,99.9
2023-03-29T23:49:09.862Z,99.9
2023-03-29T23:51:15.360Z,99.9
2023-03-29T23:55:10.553Z,99.9
2023-03-29T23:57:08.273Z,99.9
